Canning, South Dakota
Current Conditions -  °F | °C
As of 12:28 AM on Saturday 20 Dec 2014 (Local Time) from KPIR Reporting Station
Moderate Fog Moderate Fog  
Wind Chill: 16°   Ceiling: 200
Heat Index: 16°   Visibility: 0.5mi
Dew Point: 13°   Wind: 0mph
Humidity: 88%   Direction: NA
Pressure: 29.96"   Gusts: NA
Location:  44.3693°N, 100.04°W
Report Text: KPIR 200628Z AUTO 00000KT 1/2SM FZFG VV002 M09/M11 A2996 RMK AO2 I1000 T10891106
Loading
Personal Weather Stations






























Interactive Weather Map New forecast layout! Learn more

10-Day Weather Forecast

Advertisements
Track Severe Weather on mobile